Time;durP1;ratioP1;P1;durP2;ratioP2;P2;SDS_P1;SDS_P2;PMS_P1;PMS_P2;Temp;Humidity;BMP_temperature;BMP_pressure;BME280_temperature;BME280_humidity;BME280_pressure;Samples;Min_cycle;Max_cycle;Signal;HPM_P1;HPM_P2
2021/10/13 06:03:18;;;;;;;5.60;3.42;;;;;;;;;;10592122;28;20036;-85
2021/10/13 06:08:30;;;;;;;3.95;2.90;;;;;;;;;;10570751;28;20067;-88
2021/10/13 06:13:37;;;;;;;5.15;2.60;;;;;;;;;;10559572;28;20028;-88
2021/10/13 06:19:03;;;;;;;5.45;2.80;;;;;;;;;;10587570;28;20031;-89
2021/10/13 06:30:28;;;;;;;3.55;2.53;;;;;;;;;;10452953;28;20083;-90
2021/10/13 06:41:50;;;;;;;4.35;2.97;;;;;;;;;;10584190;28;20470;-86
2021/10/13 06:46:54;;;;;;;4.35;2.33;;;;;;;;;;10586378;28;20028;-87
2021/10/13 06:52:19;;;;;;;8.65;6.90;;;;;;;;;;10593618;27;20042;-89
2021/10/13 06:57:23;;;;;;;4.60;2.70;;;;;;;;;;10578678;28;20028;-88
2021/10/13 07:08:12;;;;;;;5.65;2.40;;;;;;;;;;10572399;28;20024;-85
2021/10/13 07:13:42;;;;;;;5.72;3.72;;;;;;;;;;10568688;28;20040;-85
2021/10/13 07:19:41;;;;;;;6.47;4.70;;;;;;;;;;10554361;28;20036;-85
2021/10/13 07:41:40;;;;;;;26.92;19.60;;;;;;;;;;10568597;28;20032;-86
2021/10/13 07:47:06;;;;;;;19.05;14.30;;;;;;;;;;10570238;28;20040;-85
2021/10/13 07:52:17;;;;;;;25.70;18.83;;;;;;;;;;10554631;28;20032;-86
2021/10/13 07:57:36;;;;;;;;;;;;;;;;;;10553559;28;20032;-85
2021/10/13 08:02:54;;;;;;;25.33;16.90;;;;;;;;;;10570405;28;19912;-84
2021/10/13 08:08:17;;;;;;;16.67;12.65;;;;;;;;;;10545411;28;20028;-85
2021/10/13 08:13:23;;;;;;;16.52;11.10;;;;;;;;;;10561907;28;20032;-87
2021/10/13 08:35:43;;;;;;;9.63;6.65;;;;;;;;;;10560063;28;20020;-85
2021/10/13 08:41:14;;;;;;;9.40;6.60;;;;;;;;;;10563162;28;20378;-86
2021/10/13 08:46:50;;;;;;;8.82;5.93;;;;;;;;;;10554184;28;20027;-85
2021/10/13 09:09:34;;;;;;;7.15;4.07;;;;;;;;;;10596995;28;20485;-86
2021/10/13 09:42:58;;;;;;;6.03;4.28;;;;;;;;;;10588142;28;20015;-87
2021/10/13 10:00:01;;;;;;;8.88;5.30;;;;;;;;;;10607947;22;20044;-86
2021/10/13 10:05:10;;;;;;;6.18;3.80;;;;;;;;;;10535661;28;20497;-84
2021/10/13 10:16:26;;;;;;;7.85;3.83;;;;;;;;;;10510766;28;20032;-85
2021/10/13 10:21:29;;;;;;;5.13;2.33;;;;;;;;;;10492392;28;20568;-85
2021/10/13 10:26:31;;;;;;;5.57;2.45;;;;;;;;;;10486857;28;20024;-85
2021/10/13 10:31:34;;;;;;;5.15;2.78;;;;;;;;;;10485938;28;20035;-86
2021/10/13 10:36:35;;;;;;;5.43;1.98;;;;;;;;;;10492140;28;20027;-85
2021/10/13 10:42:07;;;;;;;3.78;1.77;;;;;;;;;;10493730;28;20020;-85
2021/10/13 10:47:13;;;;;;;4.80;2.10;;;;;;;;;;10498787;28;20390;-84
2021/10/13 10:52:15;;;;;;;4.13;1.90;;;;;;;;;;10497205;28;20021;-84
2021/10/13 10:57:31;;;;;;;4.15;2.05;;;;;;;;;;10498097;28;20400;-84
2021/10/13 11:02:36;;;;;;;3.45;1.80;;;;;;;;;;10514837;28;20408;-85
2021/10/13 11:07:37;;;;;;;5.50;1.70;;;;;;;;;;10495452;28;20029;-85
2021/10/13 11:12:55;;;;;;;3.95;1.85;;;;;;;;;;10496268;28;20023;-85
2021/10/13 11:18:17;;;;;;;3.47;1.80;;;;;;;;;;10495843;28;20117;-85
2021/10/13 11:23:18;;;;;;;3.92;1.60;;;;;;;;;;10498676;28;20381;-84
2021/10/13 11:28:23;;;;;;;3.13;1.70;;;;;;;;;;10497728;28;20024;-84
2021/10/13 11:33:24;;;;;;;3.92;1.50;;;;;;;;;;10500383;28;20505;-85
2021/10/13 11:38:25;;;;;;;4.18;1.42;;;;;;;;;;10496208;28;20020;-84
2021/10/13 11:43:26;;;;;;;5.63;1.60;;;;;;;;;;10494743;28;20126;-83
2021/10/13 11:48:32;;;;;;;2.95;1.20;;;;;;;;;;10494444;28;20119;-83
2021/10/13 11:53:54;;;;;;;3.17;1.20;;;;;;;;;;10495375;28;20534;-84
2021/10/13 11:59:11;;;;;;;3.13;1.40;;;;;;;;;;10497348;28;20047;-85
2021/10/13 12:04:25;;;;;;;4.22;1.23;;;;;;;;;;10492579;28;20032;-83
2021/10/13 12:09:26;;;;;;;5.45;1.50;;;;;;;;;;10490473;28;20033;-84
2021/10/13 12:14:35;;;;;;;4.38;1.42;;;;;;;;;;10490602;28;20060;-81
2021/10/13 12:19:43;;;;;;;4.55;1.70;;;;;;;;;;10502474;28;20025;-84
2021/10/13 12:24:44;;;;;;;2.88;1.30;;;;;;;;;;10494142;28;20040;-81
2021/10/13 12:29:45;;;;;;;4.22;1.75;;;;;;;;;;10508939;28;20146;-81
2021/10/13 12:34:46;;;;;;;3.22;1.67;;;;;;;;;;10500733;28;20033;-82
2021/10/13 12:39:47;;;;;;;3.70;1.30;;;;;;;;;;10491420;28;20055;-81
2021/10/13 12:44:48;;;;;;;;;;;;;;;;;;10504349;28;20116;-81
2021/10/13 13:06:40;;;;;;;4.15;1.40;;;;;;;;;;10514002;28;20036;-87
2021/10/13 13:28:46;;;;;;;4.93;2.35;;;;;;;;;;10522519;28;20044;-83
2021/10/13 13:33:56;;;;;;;3.08;1.38;;;;;;;;;;10513615;28;20035;-86
2021/10/13 13:44:40;;;;;;;3.40;1.23;;;;;;;;;;10560632;28;20036;-86
2021/10/13 14:18:38;;;;;;;4.47;1.50;;;;;;;;;;10440726;28;20030;-86
2021/10/13 14:23:39;;;;;;;3.65;1.30;;;;;;;;;;10466894;28;20044;-82
2021/10/13 14:28:40;;;;;;;3.42;1.00;;;;;;;;;;10548634;28;20046;-82
2021/10/13 14:33:41;;;;;;;3.05;0.93;;;;;;;;;;10548398;28;20016;-81
2021/10/13 14:38:42;;;;;;;2.08;0.95;;;;;;;;;;10548063;28;20397;-82
2021/10/13 14:43:46;;;;;;;2.60;1.20;;;;;;;;;;10544838;28;20043;-82
2021/10/13 14:48:47;;;;;;;2.97;0.90;;;;;;;;;;10543568;28;20024;-83
2021/10/13 14:53:48;;;;;;;2.60;1.27;;;;;;;;;;10548393;28;20024;-83
2021/10/13 14:58:50;;;;;;;1.95;0.90;;;;;;;;;;10551071;28;20032;-83
2021/10/13 15:03:51;;;;;;;3.50;1.20;;;;;;;;;;10542376;28;20031;-82
2021/10/13 15:08:54;;;;;;;1.42;0.80;;;;;;;;;;10539970;28;20381;-81
2021/10/13 15:14:02;;;;;;;2.25;1.25;;;;;;;;;;10555061;28;20099;-82
2021/10/13 15:19:04;;;;;;;3.90;1.60;;;;;;;;;;10540191;28;20036;-81
2021/10/13 15:24:08;;;;;;;3.92;1.30;;;;;;;;;;10538384;28;20127;-82
2021/10/13 15:29:20;;;;;;;3.42;1.60;;;;;;;;;;10537888;28;20039;-84
2021/10/13 15:34:21;;;;;;;5.15;1.65;;;;;;;;;;10536970;28;20039;-85
2021/10/13 15:39:22;;;;;;;2.58;0.93;;;;;;;;;;10538792;28;20164;-81
2021/10/13 15:44:23;;;;;;;4.20;1.13;;;;;;;;;;10537604;28;20055;-81
2021/10/13 15:49:24;;;;;;;3.45;1.73;;;;;;;;;;10539155;28;20032;-82
2021/10/13 15:54:25;;;;;;;3.38;1.67;;;;;;;;;;10560758;28;20105;-82
2021/10/13 15:59:26;;;;;;;4.38;1.35;;;;;;;;;;10556204;22;20036;-80
2021/10/13 16:04:27;;;;;;;3.05;1.02;;;;;;;;;;10554069;28;20023;-81
2021/10/13 16:09:28;;;;;;;2.75;1.70;;;;;;;;;;10551474;28;20039;-81
2021/10/13 16:14:30;;;;;;;3.65;1.10;;;;;;;;;;10616308;28;20018;-84
